Time;durP1;ratioP1;P1;durP2;ratioP2;P2;SDS_P1;SDS_P2;PMS_P1;PMS_P2;Temp;Humidity;BMP_temperature;BMP_pressure;BME280_temperature;BME280_humidity;BME280_pressure;Samples;Min_cycle;Max_cycle;Signal;HPM_P1;HPM_P2
2024/01/22 00:02:08;;;;;;;20.80;13.33;;;;;;;0.52;76.13;101310.88;5074334;28;20619;-54
2024/01/22 00:04:36;;;;;;;22.40;12.97;;;;;;;0.52;75.97;101316.81;5074027;28;20679;-53
2024/01/22 00:07:04;;;;;;;25.37;13.93;;;;;;;0.51;75.58;101314.19;5074336;28;20696;-52
2024/01/22 00:09:32;;;;;;;22.27;13.53;;;;;;;0.49;75.75;101306.50;5073852;28;20193;-56
2024/01/22 00:12:00;;;;;;;22.70;12.80;;;;;;;0.47;75.16;101296.28;5073624;28;20263;-55
2024/01/22 00:14:28;;;;;;;25.00;13.93;;;;;;;0.47;75.50;101292.88;5074085;28;20197;-55
2024/01/22 00:16:57;;;;;;;23.37;13.13;;;;;;;0.45;75.31;101295.34;5069567;28;20607;-55
2024/01/22 00:19:25;;;;;;;22.37;12.90;;;;;;;0.45;75.24;101289.41;5073177;28;20206;-55
2024/01/22 00:21:53;;;;;;;24.13;14.07;;;;;;;0.42;75.08;101274.03;5072854;28;20212;-55
2024/01/22 00:24:21;;;;;;;24.17;11.97;;;;;;;0.43;75.20;101278.31;5074078;28;20280;-56
2024/01/22 00:26:49;;;;;;;25.33;12.83;;;;;;;0.42;74.37;101285.06;5071705;28;20198;-57
2024/01/22 00:29:17;;;;;;;23.07;11.73;;;;;;;0.43;74.60;101270.72;5066501;28;20198;-56
2024/01/22 00:31:45;;;;;;;21.37;13.37;;;;;;;0.41;74.26;101263.03;5072672;28;20213;-57
2024/01/22 00:34:14;;;;;;;22.30;12.40;;;;;;;0.40;74.12;101262.94;5067072;28;20198;-57
2024/01/22 00:36:42;;;;;;;22.43;12.90;;;;;;;0.38;73.98;101241.75;5073325;28;20197;-54
2024/01/22 00:39:10;;;;;;;21.63;12.37;;;;;;;0.36;73.55;101244.19;5070314;28;20287;-59
2024/01/22 00:41:38;;;;;;;20.23;12.00;;;;;;;0.34;72.82;101245.78;5073046;28;20235;-56
2024/01/22 00:44:06;;;;;;;17.23;11.30;;;;;;;0.35;72.77;101246.66;5073665;28;20579;-56
2024/01/22 00:46:34;;;;;;;20.30;12.77;;;;;;;0.32;72.85;101247.38;5073538;28;20213;-55
2024/01/22 00:49:03;;;;;;;16.80;11.23;;;;;;;0.32;73.24;101242.28;5072223;28;20212;-56
2024/01/22 00:51:33;;;;;;;21.07;12.80;;;;;;;0.29;72.97;101237.06;5069687;28;20564;-56
2024/01/22 00:54:01;;;;;;;20.77;11.87;;;;;;;0.29;72.58;101224.38;5073285;28;20624;-55
2024/01/22 00:56:30;;;;;;;22.67;11.93;;;;;;;0.27;72.68;101218.41;5069729;28;20263;-56
2024/01/22 00:58:57;;;;;;;20.30;11.10;;;;;;;0.26;72.09;101215.78;5071014;28;20205;-56
2024/01/22 01:01:25;;;;;;;21.23;11.90;;;;;;;0.21;72.01;101220.63;5072516;28;20288;-57
2024/01/22 01:03:56;;;;;;;20.27;11.77;;;;;;;0.19;72.12;101228.16;5073117;28;20201;-53
2024/01/22 01:06:24;;;;;;;23.30;12.63;;;;;;;0.17;71.57;101216.19;5061733;28;20210;-56
2024/01/22 01:08:53;;;;;;;24.87;12.33;;;;;;;0.16;71.40;101201.81;5071903;28;20244;-55
2024/01/22 01:11:21;;;;;;;25.80;11.50;;;;;;;0.16;71.34;101204.34;5073258;28;20225;-56
2024/01/22 01:13:49;;;;;;;21.43;11.83;;;;;;;0.12;71.21;101187.25;5067696;28;20570;-58
2024/01/22 01:16:17;;;;;;;19.87;11.07;;;;;;;0.11;70.82;101180.41;5073208;28;20258;-57
2024/01/22 01:18:45;;;;;;;19.67;11.27;;;;;;;0.10;71.13;101189.69;5072794;28;20295;-56
2024/01/22 01:21:13;;;;;;;21.97;11.50;;;;;;;0.07;70.31;101188.66;5070070;28;20222;-56
2024/01/22 01:23:41;;;;;;;20.40;11.63;;;;;;;0.04;70.95;101181.81;5072422;28;20205;-56
2024/01/22 01:26:10;;;;;;;21.23;11.23;;;;;;;0.04;70.66;101185.97;5065564;28;20226;-55
2024/01/22 01:28:38;;;;;;;18.10;10.60;;;;;;;0.04;71.33;101194.47;5069137;28;20652;-57
2024/01/22 01:31:06;;;;;;;19.17;11.20;;;;;;;0.00;71.03;101197.66;5066205;28;20320;-55
2024/01/22 01:33:35;;;;;;;20.27;10.63;;;;;;;-0.02;70.53;101209.34;5071192;28;20208;-53
2024/01/22 01:36:04;;;;;;;20.73;11.50;;;;;;;-0.05;70.11;101205.00;5072837;28;20231;-57
2024/01/22 01:38:32;;;;;;;18.93;11.50;;;;;;;-0.05;70.00;101204.13;5071456;28;20197;-56
2024/01/22 01:41:00;;;;;;;23.03;10.80;;;;;;;-0.07;70.22;101206.59;5072991;28;20606;-55
2024/01/22 01:43:29;;;;;;;20.90;11.87;;;;;;;-0.08;70.86;101201.44;5072324;28;20305;-56
2024/01/22 01:45:57;;;;;;;19.43;11.53;;;;;;;-0.09;69.68;101187.91;5066227;28;20664;-55
2024/01/22 01:48:26;;;;;;;19.30;11.07;;;;;;;-0.10;69.66;101186.19;5063684;28;20633;-55
2024/01/22 01:50:56;;;;;;;22.73;10.40;;;;;;;-0.10;69.88;101193.78;5072033;28;20306;-54
2024/01/22 01:53:26;;;;;;;17.37;11.10;;;;;;;-0.10;69.84;101196.31;5071697;28;20304;-54
2024/01/22 01:55:54;;;;;;;20.27;10.50;;;;;;;-0.08;69.63;101189.63;5072101;28;20209;-56
2024/01/22 01:58:23;;;;;;;22.20;10.17;;;;;;;-0.08;69.16;101197.25;5072001;28;20201;-55
2024/01/22 02:00:57;;;;;;;21.13;10.53;;;;;;;-0.06;69.23;101205.81;5071638;28;20292;-57
2024/01/22 02:03:25;;;;;;;20.90;10.60;;;;;;;-0.06;69.08;101213.41;5062017;28;20240;-57
2024/01/22 02:05:53;;;;;;;16.67;10.40;;;;;;;-0.09;69.23;101205.66;5057196;28;20687;-55
2024/01/22 02:08:21;;;;;;;19.83;11.57;;;;;;;-0.08;68.85;101202.31;5067430;28;20204;-56
2024/01/22 02:10:49;;;;;;;20.73;10.73;;;;;;;-0.08;68.94;101193.84;5070805;28;20258;-56
2024/01/22 02:13:17;;;;;;;20.50;10.63;;;;;;;-0.10;68.43;101196.31;5072058;28;20547;-56
2024/01/22 02:15:45;;;;;;;18.03;10.40;;;;;;;-0.10;69.00;101201.38;5071863;28;20205;-57
2024/01/22 02:18:14;;;;;;;18.20;10.77;;;;;;;-0.11;68.46;101199.66;5071384;28;20208;-54
2024/01/22 02:20:42;;;;;;;18.27;10.10;;;;;;;-0.11;68.24;101193.69;5067866;28;20202;-56
2024/01/22 02:23:11;;;;;;;16.93;8.93;;;;;;;-0.11;67.99;101186.09;5062516;28;20237;-56
2024/01/22 02:25:39;;;;;;;18.50;10.23;;;;;;;-0.11;67.50;101189.50;5062409;28;20581;-57
2024/01/22 02:28:07;;;;;;;18.00;10.27;;;;;;;-0.09;67.68;101187.91;5071885;28;20316;-58
2024/01/22 02:30:35;;;;;;;18.33;10.20;;;;;;;-0.11;66.61;101189.50;5071510;28;20239;-56
2024/01/22 02:33:03;;;;;;;16.87;10.33;;;;;;;-0.10;66.50;101183.66;5071552;28;20249;-56
2024/01/22 02:35:31;;;;;;;17.97;9.60;;;;;;;-0.13;66.31;101186.03;5072770;28;20205;-54
2024/01/22 02:37:59;;;;;;;15.93;9.50;;;;;;;-0.12;66.62;101177.63;5070683;28;20227;-57
2024/01/22 02:40:29;;;;;;;14.43;8.40;;;;;;;-0.10;65.96;101185.31;5069580;28;20652;-55
2024/01/22 02:42:57;;;;;;;18.70;9.10;;;;;;;-0.11;66.06;101179.38;5066065;28;20232;-56
2024/01/22 02:45:24;;;;;;;15.33;8.73;;;;;;;-0.11;66.00;101160.75;5066007;28;20208;-55
2024/01/22 02:47:52;;;;;;;19.27;8.90;;;;;;;-0.14;65.57;101143.75;5071423;28;20583;-56
2024/01/22 02:50:21;;;;;;;17.67;8.10;;;;;;;-0.16;65.41;101135.22;5071083;28;20680;-54
2024/01/22 02:52:48;;;;;;;19.37;8.53;;;;;;;-0.17;65.52;101127.53;5068750;28;20252;-57
2024/01/22 02:55:17;;;;;;;14.70;8.77;;;;;;;-0.18;64.68;101131.75;5071438;28;20209;-57
2024/01/22 02:57:49;;;;;;;15.70;7.87;;;;;;;-0.16;64.77;101125.06;5067247;28;20240;-55
2024/01/22 03:00:17;;;;;;;14.10;8.23;;;;;;;-0.15;64.38;101111.59;5064888;28;20198;-57
2024/01/22 03:02:45;;;;;;;13.93;7.90;;;;;;;-0.16;63.89;101112.41;5064553;28;20663;-56
2024/01/22 03:05:14;;;;;;;18.23;9.17;;;;;;;-0.15;63.47;101114.13;5071261;28;20571;-53
2024/01/22 03:07:42;;;;;;;13.67;7.57;;;;;;;-0.14;63.02;101103.25;5069840;28;20691;-57
2024/01/22 03:10:10;;;;;;;13.03;7.67;;;;;;;-0.11;64.07;101105.03;5071165;28;20682;-57
2024/01/22 03:12:38;;;;;;;14.47;8.23;;;;;;;-0.09;63.54;101106.00;5070648;28;20213;-56
2024/01/22 03:15:09;;;;;;;12.20;7.77;;;;;;;-0.09;62.98;101111.91;5069490;28;20197;-54
2024/01/22 03:17:37;;;;;;;13.50;7.43;;;;;;;-0.07;62.70;101110.34;5070361;28;20679;-56
2024/01/22 03:20:06;;;;;;;15.57;8.40;;;;;;;-0.07;62.72;101105.28;5063027;28;20197;-55
2024/01/22 03:22:34;;;;;;;14.73;7.47;;;;;;;-0.03;62.39;101107.16;5060968;28;20712;-56
2024/01/22 03:25:02;;;;;;;13.47;7.73;;;;;;;-0.03;62.13;101121.50;5070657;28;20676;-54
2024/01/22 03:27:30;;;;;;;14.03;7.67;;;;;;;-0.03;61.69;101113.88;5066192;28;20527;-55
2024/01/22 03:29:58;;;;;;;14.27;7.87;;;;;;;-0.02;62.15;101106.34;5062098;28;20197;-58
2024/01/22 03:32:28;;;;;;;12.40;7.93;;;;;;;0.02;62.32;101107.38;5070404;28;20723;-56
2024/01/22 03:34:57;;;;;;;14.80;7.43;;;;;;;0.02;61.79;101087.09;5070178;28;20207;-57
2024/01/22 03:37:25;;;;;;;12.20;6.93;;;;;;;0.04;62.37;101093.13;5066729;28;20216;-54
2024/01/22 03:39:53;;;;;;;13.57;7.23;;;;;;;0.05;61.71;101101.59;5069325;28;20212;-57
2024/01/22 03:42:21;;;;;;;13.27;6.90;;;;;;;0.05;61.89;101089.78;5070201;28;20244;-55
2024/01/22 03:44:49;;;;;;;14.87;7.30;;;;;;;0.05;61.00;101092.31;5061895;28;20202;-55
2024/01/22 03:47:17;;;;;;;13.77;7.33;;;;;;;0.05;61.00;101096.53;5070126;28;20205;-55
2024/01/22 03:49:46;;;;;;;12.60;6.87;;;;;;;0.04;60.55;101090.59;5070036;28;20355;-56
2024/01/22 03:52:14;;;;;;;13.77;6.90;;;;;;;0.05;60.74;101081.31;5063630;28;20216;-58
2024/01/22 03:54:42;;;;;;;13.23;7.10;;;;;;;0.07;60.79;101089.84;5068682;28;20204;-58
2024/01/22 03:57:10;;;;;;;13.73;7.50;;;;;;;0.08;60.83;101084.00;5064978;28;20213;-56
2024/01/22 03:59:38;;;;;;;13.63;7.23;;;;;;;0.06;60.62;101076.31;5066125;28;20209;-55
2024/01/22 04:02:06;;;;;;;13.87;6.97;;;;;;;0.06;60.72;101080.50;5070034;28;20216;-57
2024/01/22 04:04:34;;;;;;;11.63;7.20;;;;;;;0.05;60.41;101084.72;5066452;28;20979;-56
2024/01/22 04:07:03;;;;;;;13.03;7.67;;;;;;;0.05;60.52;101076.25;5069967;28;20197;-56
2024/01/22 04:09:31;;;;;;;14.23;7.17;;;;;;;0.04;60.56;101077.03;5069953;28;20544;-55
2024/01/22 04:11:59;;;;;;;12.93;7.27;;;;;;;0.01;60.18;101071.84;5069748;28;20617;-57
2024/01/22 04:14:27;;;;;;;11.23;6.63;;;;;;;-0.03;60.44;101066.63;5061825;28;20642;-57
2024/01/22 04:16:55;;;;;;;15.50;7.73;;;;;;;-0.01;60.55;101059.06;5067541;28;20300;-55
2024/01/22 04:19:23;;;;;;;12.17;7.23;;;;;;;-0.02;60.60;101048.09;5070117;28;20209;-55
2024/01/22 04:21:51;;;;;;;14.23;7.77;;;;;;;0.00;60.00;101048.19;5070207;28;20731;-56
2024/01/22 04:24:20;;;;;;;14.73;7.40;;;;;;;0.04;60.23;101041.56;5068935;28;20194;-55
2024/01/22 04:26:48;;;;;;;15.03;6.43;;;;;;;0.04;60.13;101036.50;5069360;28;20201;-56
2024/01/22 04:29:16;;;;;;;14.10;7.00;;;;;;;0.03;60.13;101033.09;5066847;28;20195;-58
2024/01/22 04:31:44;;;;;;;14.73;7.33;;;;;;;0.04;60.09;101031.41;5069868;28;20782;-56
2024/01/22 04:34:12;;;;;;;12.73;7.17;;;;;;;0.04;60.42;101041.56;5062739;28;20229;-56
2024/01/22 04:36:41;;;;;;;12.47;7.50;;;;;;;0.06;60.14;101038.31;5071831;28;20660;-57
2024/01/22 04:39:08;;;;;;;12.87;7.80;;;;;;;0.04;59.58;101028.88;5073150;28;20205;-57
2024/01/22 04:41:38;;;;;;;15.13;7.80;;;;;;;0.06;59.93;101022.25;5070336;28;20206;-56
2024/01/22 04:44:06;;;;;;;12.77;6.90;;;;;;;0.08;59.33;101021.53;5072135;28;20708;-57
2024/01/22 04:46:34;;;;;;;14.40;7.50;;;;;;;0.13;60.10;101016.66;5073770;28;20680;-56
2024/01/22 04:49:01;;;;;;;14.67;7.50;;;;;;;0.16;59.82;101014.28;5069401;28;20209;-58
2024/01/22 04:51:30;;;;;;;14.37;7.73;;;;;;;0.17;59.83;100998.25;5068205;28;20571;-57
2024/01/22 04:53:57;;;;;;;15.13;7.50;;;;;;;0.18;59.28;100993.25;5072041;28;20221;-57
2024/01/22 04:56:25;;;;;;;14.90;7.37;;;;;;;0.23;59.19;100993.47;5072330;28;20660;-60
2024/01/22 04:58:55;;;;;;;16.87;8.13;;;;;;;0.23;59.24;100983.34;5072898;28;20213;-55
2024/01/22 05:01:23;;;;;;;13.37;7.60;;;;;;;0.22;59.28;100964.75;5066132;28;20250;-55
2024/01/22 05:03:50;;;;;;;15.37;7.57;;;;;;;0.22;58.70;100971.44;5068995;28;20198;-56
2024/01/22 05:06:19;;;;;;;15.30;7.80;;;;;;;0.18;58.46;100972.97;5072412;28;20292;-57
2024/01/22 05:08:47;;;;;;;16.03;8.00;;;;;;;0.17;58.67;100978.00;5070452;28;20201;-56
2024/01/22 05:11:15;;;;;;;15.63;7.97;;;;;;;0.15;58.92;100977.06;5069785;28;20263;-55
2024/01/22 05:13:49;;;;;;;19.80;7.33;;;;;;;0.14;59.27;100980.38;5072191;28;20763;-56
2024/01/22 05:16:19;;;;;;;15.37;7.43;;;;;;;0.14;58.98;100968.56;5071960;28;20227;-58
2024/01/22 05:18:48;;;;;;;15.57;7.33;;;;;;;0.11;58.77;100965.94;5072795;28;20217;-57
2024/01/22 05:21:16;;;;;;;13.90;7.90;;;;;;;0.05;58.26;100960.56;5068099;28;20730;-57
2024/01/22 05:23:44;;;;;;;12.03;7.17;;;;;;;0.03;58.35;100951.16;5072089;28;20201;-57
2024/01/22 05:26:12;;;;;;;12.90;7.43;;;;;;;-0.01;58.73;100951.00;5066658;28;20685;-57
2024/01/22 05:28:40;;;;;;;11.40;7.03;;;;;;;-0.07;58.56;100945.69;5069207;28;20560;-58
2024/01/22 05:31:08;;;;;;;14.73;7.80;;;;;;;-0.12;58.46;100944.59;5064579;28;20217;-57
2024/01/22 05:33:37;;;;;;;14.20;7.27;;;;;;;-0.14;59.11;100946.19;5068350;28;20594;-53
2024/01/22 05:36:06;;;;;;;14.70;7.73;;;;;;;-0.17;59.49;100952.78;5072047;28;20295;-55
2024/01/22 05:38:34;;;;;;;11.63;6.97;;;;;;;-0.18;59.73;100946.84;5068406;28;20201;-57
2024/01/22 05:41:02;;;;;;;12.80;7.20;;;;;;;-0.18;59.69;100946.84;5066717;28;20235;-52
2024/01/22 05:43:30;;;;;;;13.00;7.13;;;;;;;-0.17;59.41;100943.53;5066306;28;20225;-56
2024/01/22 05:45:58;;;;;;;13.63;7.77;;;;;;;-0.18;59.21;100933.34;5071747;28;20299;-54
2024/01/22 05:48:26;;;;;;;15.40;7.70;;;;;;;-0.19;59.10;100929.91;5072399;28;20212;-55
2024/01/22 05:50:55;;;;;;;17.90;7.77;;;;;;;-0.22;58.95;100921.28;5072269;28;20225;-55
2024/01/22 05:53:23;;;;;;;14.27;7.40;;;;;;;-0.25;59.00;100914.44;5070368;28;20217;-54
2024/01/22 05:55:52;;;;;;;12.73;6.83;;;;;;;-0.26;58.83;100910.16;5071772;28;20205;-55
2024/01/22 05:58:20;;;;;;;14.17;7.03;;;;;;;-0.30;58.91;100898.16;5072245;28;20201;-55
2024/01/22 06:00:48;;;;;;;13.37;7.23;;;;;;;-0.34;58.89;100887.03;5066520;28;20201;-51
2024/01/22 06:03:16;;;;;;;12.53;7.30;;;;;;;-0.33;59.10;100893.84;5057827;28;20255;-56
2024/01/22 06:05:44;;;;;;;11.67;7.27;;;;;;;-0.35;58.80;100897.09;5067257;28;20240;-56
2024/01/22 06:08:14;;;;;;;16.37;7.53;;;;;;;-0.38;58.84;100887.69;5070871;28;20281;-54
2024/01/22 06:10:42;;;;;;;14.07;7.47;;;;;;;-0.38;58.80;100895.28;5072198;28;20193;-54
2024/01/22 06:13:11;;;;;;;14.70;7.00;;;;;;;-0.38;58.77;100889.34;5071453;28;20206;-54
2024/01/22 06:15:39;;;;;;;13.17;7.43;;;;;;;-0.38;58.73;100880.09;5060534;28;20571;-53
2024/01/22 06:18:07;;;;;;;13.63;7.33;;;;;;;-0.37;58.56;100865.75;5063848;28;20291;-55
2024/01/22 06:20:35;;;;;;;10.80;6.50;;;;;;;-0.36;58.67;100863.31;5065913;28;20206;-57
2024/01/22 06:23:06;;;;;;;11.37;6.80;;;;;;;-0.33;58.61;100852.44;5070627;28;20205;-56
2024/01/22 06:25:35;;;;;;;12.30;7.40;;;;;;;-0.32;58.49;100839.88;5065806;28;20201;-57
2024/01/22 06:28:03;;;;;;;12.67;6.53;;;;;;;-0.28;58.00;100833.28;5062682;28;20729;-56
2024/01/22 06:30:31;;;;;;;12.80;6.63;;;;;;;-0.27;58.25;100822.34;5071700;28;20201;-54
2024/01/22 06:32:59;;;;;;;15.97;7.97;;;;;;;-0.28;57.21;100821.47;5061310;28;20698;-60
2024/01/22 06:35:27;;;;;;;11.80;6.83;;;;;;;-0.31;57.36;100810.34;5065252;28;20206;-54
2024/01/22 06:37:55;;;;;;;15.60;6.63;;;;;;;-0.31;57.84;100817.94;5073594;28;20232;-52
2024/01/22 06:40:23;;;;;;;11.20;7.43;;;;;;;-0.33;57.87;100806.88;5068021;28;20213;-57
2024/01/22 06:42:52;;;;;;;11.33;6.50;;;;;;;-0.31;58.23;100802.75;5061174;28;20652;-56
2024/01/22 06:45:20;;;;;;;14.27;6.27;;;;;;;-0.33;57.39;100791.66;5070360;28;20194;-55
2024/01/22 06:47:49;;;;;;;9.53;5.83;;;;;;;-0.32;57.30;100806.94;5069279;28;20574;-56
2024/01/22 06:50:17;;;;;;;11.30;6.30;;;;;;;-0.30;57.75;100818.00;5070223;28;20233;-55
2024/01/22 06:52:46;;;;;;;13.27;6.90;;;;;;;-0.28;57.08;100815.53;5063138;28;20255;-55
2024/01/22 06:55:14;;;;;;;10.93;6.20;;;;;;;-0.27;57.29;100804.63;5067426;28;20316;-57
2024/01/22 06:57:42;;;;;;;11.90;6.27;;;;;;;-0.26;57.20;100793.69;5069743;28;20209;-56
2024/01/22 07:00:12;;;;;;;12.03;6.10;;;;;;;-0.23;56.71;100782.81;5060899;28;20625;-56
2024/01/22 07:02:42;;;;;;;10.77;5.50;;;;;;;-0.20;56.72;100793.09;5070831;28;20202;-57
2024/01/22 07:05:10;;;;;;;11.77;6.07;;;;;;;-0.16;56.82;100789.88;5070117;28;20288;-56
2024/01/22 07:07:39;;;;;;;10.23;5.40;;;;;;;-0.11;56.00;100785.88;5070603;28;20201;-56
2024/01/22 07:10:09;;;;;;;10.90;6.37;;;;;;;-0.03;56.16;100798.09;5070463;28;20564;-58
2024/01/22 07:12:40;;;;;;;10.80;6.13;;;;;;;0.03;55.57;100797.47;5067646;28;20224;-56
2024/01/22 07:15:12;;;;;;;13.07;6.00;;;;;;;0.08;55.44;100806.16;5068251;28;20243;-58
2024/01/22 07:17:42;;;;;;;13.50;6.23;;;;;;;0.13;55.78;100813.94;5063422;28;20206;-58
2024/01/22 07:20:13;;;;;;;12.53;6.80;;;;;;;0.18;55.49;100807.41;5069533;28;20201;-58
2024/01/22 07:22:43;;;;;;;14.83;7.33;;;;;;;0.19;56.29;100804.09;5066556;28;20197;-56
2024/01/22 07:25:16;;;;;;;10.20;6.10;;;;;;;0.22;55.33;100819.41;5065913;28;20197;-57
2024/01/22 07:27:44;;;;;;;10.83;6.20;;;;;;;0.27;55.19;100827.22;5068187;28;20610;-58
2024/01/22 07:30:13;;;;;;;11.50;6.37;;;;;;;0.30;54.47;100833.28;5069352;28;20299;-58
2024/01/22 07:32:44;;;;;;;12.00;6.20;;;;;;;0.29;54.52;100813.78;5066881;28;20254;-60
2024/01/22 07:35:13;;;;;;;8.73;5.23;;;;;;;0.30;54.69;100822.28;5070795;28;20703;-58
2024/01/22 07:37:44;;;;;;;13.13;6.20;;;;;;;0.34;54.90;100817.41;5070905;28;20197;-56
2024/01/22 07:40:15;;;;;;;9.87;5.60;;;;;;;0.39;54.58;100813.38;5070313;28;20201;-56
2024/01/22 07:42:43;;;;;;;9.33;5.27;;;;;;;0.46;54.51;100815.38;5069560;28;20197;-57
2024/01/22 07:45:11;;;;;;;10.67;5.77;;;;;;;0.53;54.02;100805.47;5068315;28;20283;-57
2024/01/22 07:47:39;;;;;;;9.57;5.33;;;;;;;0.57;53.38;100802.28;5062302;28;20542;-58
2024/01/22 07:50:10;;;;;;;10.93;5.70;;;;;;;0.61;53.21;100799.06;5068764;28;20754;-58
2024/01/22 07:52:39;;;;;;;9.40;5.43;;;;;;;0.68;53.67;100801.03;5066094;28;20676;-57
2024/01/22 07:55:11;;;;;;;10.60;5.97;;;;;;;0.76;53.57;100802.19;5063030;28;20700;-58
2024/01/22 07:57:39;;;;;;;12.00;5.97;;;;;;;0.83;53.35;100798.25;5070039;28;20629;-57
2024/01/22 08:00:11;;;;;;;8.77;5.47;;;;;;;0.85;53.07;100782.28;5070171;28;20201;-57
2024/01/22 08:02:40;;;;;;;12.07;5.60;;;;;;;0.85;52.07;100774.69;5067817;28;20201;-55
2024/01/22 08:05:13;;;;;;;11.60;5.67;;;;;;;0.88;52.66;100769.69;5065654;28;20664;-58
2024/01/22 08:07:42;;;;;;;9.17;5.17;;;;;;;0.91;52.05;100759.66;5073113;28;20610;-57
2024/01/22 08:10:10;;;;;;;14.97;6.07;;;;;;;0.92;52.44;100751.28;5073579;28;20213;-57
2024/01/22 08:12:38;;;;;;;13.63;5.97;;;;;;;0.93;51.83;100752.13;5067614;28;20209;-57
2024/01/22 08:15:07;;;;;;;10.63;5.53;;;;;;;0.96;52.65;100742.97;5071834;28;20304;-58
2024/01/22 08:17:35;;;;;;;11.40;5.93;;;;;;;1.00;52.73;100748.16;5071990;28;20212;-61
2024/01/22 08:20:06;;;;;;;11.87;5.67;;;;;;;1.02;51.87;100744.88;5073354;28;20197;-58
2024/01/22 08:22:35;;;;;;;15.93;5.90;;;;;;;1.09;52.69;100739.22;5074426;28;20205;-59
2024/01/22 08:25:04;;;;;;;11.00;5.70;;;;;;;1.14;51.88;100736.84;5074163;28;20716;-58
2024/01/22 08:27:31;;;;;;;10.77;6.23;;;;;;;1.18;52.70;100739.56;5064632;28;20206;-58
2024/01/22 08:29:59;;;;;;;12.47;6.07;;;;;;;1.22;51.89;100727.88;5056106;28;20296;-57
2024/01/22 08:32:27;;;;;;;10.80;6.17;;;;;;;1.26;52.09;100736.47;5069570;28;20575;-56
2024/01/22 08:34:55;;;;;;;10.17;5.67;;;;;;;1.31;51.98;100725.66;5063867;28;20240;-58
2024/01/22 08:37:23;;;;;;;11.27;5.60;;;;;;;1.36;51.54;100720.72;5072099;28;20974;-56
2024/01/22 08:39:53;;;;;;;9.80;5.53;;;;;;;1.40;50.73;100709.88;5072234;28;20252;-58
2024/01/22 08:42:21;;;;;;;12.43;5.70;;;;;;;1.42;51.17;100708.28;5073636;28;20695;-57
2024/01/22 08:44:49;;;;;;;15.30;6.53;;;;;;;1.44;51.44;100701.59;5073828;28;20202;-58
2024/01/22 08:47:17;;;;;;;11.60;6.20;;;;;;;1.48;50.33;100697.47;5073144;28;20248;-58
2024/01/22 08:49:45;;;;;;;11.73;5.73;;;;;;;1.50;50.85;100689.09;5071135;28;20239;-56
2024/01/22 08:52:13;;;;;;;9.70;5.67;;;;;;;1.53;50.68;100686.66;5071757;28;20205;-57
2024/01/22 08:54:41;;;;;;;13.73;5.30;;;;;;;1.56;50.87;100686.78;5069620;28;20294;-57
2024/01/22 08:57:11;;;;;;;10.33;5.63;;;;;;;1.60;49.81;100677.59;5073525;28;20245;-57
2024/01/22 08:59:39;;;;;;;10.60;5.43;;;;;;;1.62;50.24;100678.47;5072410;28;20197;-57
2024/01/22 09:02:07;;;;;;;11.07;6.20;;;;;;;1.69;49.78;100673.69;5071534;28;20289;-58
2024/01/22 09:04:35;;;;;;;10.83;5.20;;;;;;;1.77;50.38;100675.59;5064690;28;20201;-57
2024/01/22 09:07:03;;;;;;;12.60;5.77;;;;;;;1.84;49.91;100678.44;5071214;28;20205;-57
2024/01/22 09:09:31;;;;;;;10.93;5.80;;;;;;;1.89;49.35;100660.78;5070588;28;20212;-58
2024/01/22 09:11:59;;;;;;;11.73;5.70;;;;;;;1.93;48.67;100653.31;5069926;28;20209;-57
2024/01/22 09:14:29;;;;;;;9.20;4.57;;;;;;;2.01;49.39;100660.34;5062050;28;20651;-56
2024/01/22 09:16:56;;;;;;;11.70;5.30;;;;;;;2.06;48.84;100646.97;5067183;28;20213;-58
2024/01/22 09:19:24;;;;;;;16.67;5.57;;;;;;;2.11;48.30;100642.03;5062166;28;20663;-57
2024/01/22 09:21:52;;;;;;;11.23;5.90;;;;;;;2.17;48.74;100638.00;5067414;28;20541;-56
2024/01/22 09:24:20;;;;;;;11.90;5.63;;;;;;;2.22;48.85;100635.59;5070829;28;20626;-56
2024/01/22 09:26:48;;;;;;;11.50;5.47;;;;;;;2.27;48.10;100623.91;5067434;28;20194;-58
2024/01/22 09:29:17;;;;;;;12.33;5.03;;;;;;;2.31;48.54;100620.63;5067519;28;20296;-59
2024/01/22 09:31:46;;;;;;;11.53;5.43;;;;;;;2.38;47.98;100631.84;5069320;28;20197;-57
2024/01/22 09:34:14;;;;;;;10.90;5.27;;;;;;;2.41;47.52;100619.25;5071218;28;20205;-57
2024/01/22 09:36:42;;;;;;;10.47;5.10;;;;;;;2.45;47.67;100612.56;5071753;28;20236;-58
2024/01/22 09:39:11;;;;;;;10.50;4.73;;;;;;;2.48;47.61;100602.50;5065855;28;20210;-57
2024/01/22 09:41:40;;;;;;;8.20;5.13;;;;;;;2.50;47.83;100611.00;5069625;28;20251;-58
2024/01/22 09:44:08;;;;;;;10.37;5.20;;;;;;;2.53;47.81;100603.47;5068848;28;20236;-57
2024/01/22 09:46:36;;;;;;;8.20;4.77;;;;;;;2.59;47.08;100607.06;5064091;28;20200;-57
2024/01/22 09:49:06;;;;;;;9.40;4.97;;;;;;;2.64;46.91;100591.94;5065606;28;20213;-57
2024/01/22 09:51:35;;;;;;;10.50;4.53;;;;;;;2.68;47.08;100593.75;5062043;28;20263;-58
2024/01/22 09:54:08;;;;;;;9.53;4.73;;;;;;;2.74;47.19;100588.84;5066293;28;20201;-56
2024/01/22 09:56:37;;;;;;;7.73;4.83;;;;;;;2.76;46.83;100579.59;5070356;28;20217;-58
2024/01/22 09:59:16;;;;;;;10.77;4.77;;;;;;;2.79;46.40;100573.69;5067166;28;20202;-58
2024/01/22 10:01:46;;;;;;;14.63;5.10;;;;;;;2.80;46.00;100566.13;5068578;28;20209;-58
2024/01/22 10:04:16;;;;;;;11.83;5.10;;;;;;;2.81;46.54;100542.41;5072342;28;20568;-58
2024/01/22 10:06:45;;;;;;;7.63;4.80;;;;;;;2.83;45.84;100535.66;5071350;28;20287;-59
2024/01/22 10:09:15;;;;;;;9.33;4.73;;;;;;;2.87;46.22;100541.69;5070639;28;20197;-58
2024/01/22 10:11:47;;;;;;;12.33;4.93;;;;;;;2.93;46.06;100535.94;5067251;28;20653;-58
2024/01/22 10:14:15;;;;;;;11.73;4.97;;;;;;;2.98;45.68;100529.25;5069762;28;20483;-58
2024/01/22 10:16:44;;;;;;;9.87;4.77;;;;;;;3.03;45.98;100530.25;5070007;28;20225;-58
2024/01/22 10:19:13;;;;;;;10.30;5.53;;;;;;;3.08;45.64;100526.16;5072196;28;20206;-57
2024/01/22 10:21:42;;;;;;;9.33;4.53;;;;;;;3.14;44.92;100518.69;5065337;28;20260;-58
2024/01/22 10:24:10;;;;;;;11.43;4.80;;;;;;;3.15;44.67;100513.63;5074383;28;20202;-59
2024/01/22 10:26:39;;;;;;;8.97;4.40;;;;;;;3.20;43.98;100492.50;5065975;28;20202;-57
2024/01/22 10:29:15;;;;;;;9.03;4.07;;;;;;;3.23;43.07;100482.41;5063957;28;20691;-59
2024/01/22 10:31:56;;;;;;;11.50;4.13;;;;;;;3.26;43.04;100485.03;5065401;28;20644;-60
2024/01/22 10:34:28;;;;;;;10.60;4.27;;;;;;;3.22;42.98;100461.16;5054977;28;20205;-58
2024/01/22 10:37:07;;;;;;;6.73;3.83;;;;;;;3.30;43.44;100448.63;5060252;28;20221;-60
2024/01/22 10:39:36;;;;;;;9.50;4.67;;;;;;;3.31;43.34;100410.44;5068557;28;20735;-58
2024/01/22 10:42:08;;;;;;;7.47;4.80;;;;;;;3.32;43.09;100399.44;5060709;28;20213;-58
2024/01/22 10:44:38;;;;;;;6.93;4.53;;;;;;;3.33;43.26;100419.00;5061503;28;20240;-57
2024/01/22 10:47:06;;;;;;;10.63;4.93;;;;;;;3.35;43.58;100419.00;5066758;28;20197;-58
2024/01/22 10:49:34;;;;;;;9.80;4.80;;;;;;;3.35;43.88;100414.81;5068895;28;20237;-58
2024/01/22 10:52:05;;;;;;;11.63;5.23;;;;;;;3.37;43.82;100415.69;5064475;28;20751;-57
2024/01/22 10:54:35;;;;;;;8.10;4.33;;;;;;;3.40;44.13;100414.91;5070145;28;20318;-59
2024/01/22 10:57:05;;;;;;;10.10;5.20;;;;;;;3.42;44.16;100409.84;5059791;28;20606;-59
2024/01/22 10:59:35;;;;;;;8.33;4.50;;;;;;;3.46;44.50;100415.06;5067887;28;20208;-57
2024/01/22 11:02:05;;;;;;;8.20;4.30;;;;;;;3.52;44.60;100420.28;5068071;28;20652;-59
2024/01/22 11:04:35;;;;;;;9.70;4.70;;;;;;;3.56;44.33;100411.03;5064082;28;20567;-59
2024/01/22 11:07:06;;;;;;;12.80;4.50;;;;;;;3.61;44.02;100402.66;5069640;28;20209;-58
2024/01/22 11:09:36;;;;;;;6.73;4.50;;;;;;;3.64;44.19;100386.56;5070650;28;20215;-58
2024/01/22 11:12:08;;;;;;;10.70;3.77;;;;;;;3.68;43.45;100375.59;5064397;28;20217;-58
2024/01/22 11:14:37;;;;;;;7.33;4.47;;;;;;;3.73;43.30;100368.94;5068697;28;20236;-58
2024/01/22 11:17:06;;;;;;;7.13;4.07;;;;;;;3.80;42.94;100372.47;5070222;28;20217;-57
2024/01/22 11:19:34;;;;;;;7.20;3.77;;;;;;;3.84;42.58;100357.28;5068601;28;20193;-58
2024/01/22 11:22:07;;;;;;;7.93;4.27;;;;;;;3.90;41.63;100350.56;5069493;28;20201;-59
2024/01/22 11:24:37;;;;;;;8.77;4.60;;;;;;;3.95;41.22;100343.91;5069168;28;20213;-58
2024/01/22 11:27:06;;;;;;;8.33;3.60;;;;;;;4.01;40.59;100351.66;5070206;28;20220;-58
2024/01/22 11:29:35;;;;;;;5.53;3.70;;;;;;;4.04;39.01;100328.78;5070110;28;20201;-58